Time;durP1;ratioP1;P1;durP2;ratioP2;P2;SDS_P1;SDS_P2;PMS_P1;PMS_P2;Temp;Humidity;BMP_temperature;BMP_pressure;BME280_temperature;BME280_humidity;BME280_pressure;Samples;Min_cycle;Max_cycle;Signal;HPM_P1;HPM_P2
2024/01/24 00:01:04;;;;;;;18.10;7.50;;;8.70;56.40;;;;;;4933948;29;20235;-82
2024/01/24 00:03:30;;;;;;;20.73;7.57;;;8.60;56.40;;;;;;4936743;29;20209;-82
2024/01/24 00:05:55;;;;;;;21.50;8.30;;;8.60;56.20;;;;;;4935185;29;20199;-83
2024/01/24 00:08:21;;;;;;;27.23;7.93;;;8.60;56.30;;;;;;4935982;29;20541;-83
2024/01/24 00:10:47;;;;;;;19.73;8.17;;;8.70;56.40;;;;;;4949842;28;20185;-82
2024/01/24 00:13:12;;;;;;;29.80;9.37;;;8.60;56.40;;;;;;4935501;29;20221;-82
2024/01/24 00:15:38;;;;;;;23.87;8.33;;;8.70;56.30;;;;;;4935034;29;20216;-81
2024/01/24 00:18:04;;;;;;;24.97;8.50;;;8.70;56.30;;;;;;4935813;28;20646;-81
2024/01/24 00:20:30;;;;;;;24.53;7.97;;;8.70;56.30;;;;;;4935822;29;20549;-82
2024/01/24 00:22:55;;;;;;;17.27;8.40;;;8.70;56.20;;;;;;4950435;28;20189;-82
2024/01/24 00:25:21;;;;;;;22.83;8.30;;;8.70;56.30;;;;;;4934600;28;20194;-82
2024/01/24 00:27:47;;;;;;;28.57;9.40;;;8.70;56.20;;;;;;4934058;29;20623;-82
2024/01/24 00:30:13;;;;;;;20.70;8.20;;;8.70;56.20;;;;;;4936144;29;20200;-83
2024/01/24 00:32:38;;;;;;;22.57;7.97;;;8.70;56.10;;;;;;4949030;29;20246;-81
2024/01/24 00:35:04;;;;;;;24.53;8.23;;;8.60;56.50;;;;;;4949988;29;20227;-81
2024/01/24 00:37:30;;;;;;;21.67;8.73;;;8.60;56.10;;;;;;4935519;28;20185;-82
2024/01/24 00:39:56;;;;;;;21.13;7.83;;;8.60;56.00;;;;;;4950798;28;20177;-81
2024/01/24 00:42:21;;;;;;;20.97;7.73;;;8.70;56.00;;;;;;4936465;28;20177;-82
2024/01/24 00:44:48;;;;;;;21.40;7.97;;;8.60;56.00;;;;;;4934704;29;20302;-83
2024/01/24 00:47:13;;;;;;;24.30;8.00;;;8.60;55.90;;;;;;4934999;29;20269;-82
2024/01/24 00:49:39;;;;;;;21.47;7.93;;;8.60;56.00;;;;;;4934264;29;20232;-82
2024/01/24 00:52:04;;;;;;;22.17;8.40;;;8.70;56.00;;;;;;4932864;29;20666;-83
2024/01/24 00:54:30;;;;;;;17.07;7.17;;;8.70;56.10;;;;;;4936235;29;20268;-82
2024/01/24 00:56:56;;;;;;;17.40;7.47;;;8.70;56.00;;;;;;4933974;29;21021;-82
2024/01/24 00:59:22;;;;;;;22.10;8.50;;;8.70;56.00;;;;;;4950557;28;20232;-83
2024/01/24 01:01:48;;;;;;;19.83;7.57;;;8.80;56.00;;;;;;4934167;29;20234;-82
2024/01/24 01:04:14;;;;;;;19.63;7.50;;;8.70;56.00;;;;;;4951183;29;20177;-81
2024/01/24 01:06:39;;;;;;;18.57;7.10;;;8.70;55.90;;;;;;4951931;28;20185;-83
2024/01/24 01:09:05;;;;;;;23.07;7.47;;;8.70;55.90;;;;;;4935508;29;20177;-83
2024/01/24 01:11:31;;;;;;;21.07;7.10;;;8.70;55.80;;;;;;4934926;29;20192;-82
2024/01/24 01:13:56;;;;;;;23.10;8.17;;;8.70;55.80;;;;;;4934501;29;20185;-81
2024/01/24 01:16:22;;;;;;;18.93;7.43;;;8.70;55.80;;;;;;4950591;28;20219;-82
2024/01/24 01:18:48;;;;;;;18.87;6.90;;;8.70;55.70;;;;;;4933625;29;20189;-82
2024/01/24 01:21:13;;;;;;;21.63;7.93;;;8.80;55.80;;;;;;4935727;29;20177;-83
2024/01/24 01:23:39;;;;;;;18.70;8.00;;;8.70;55.60;;;;;;4934288;29;20236;-83
2024/01/24 01:26:05;;;;;;;22.33;7.13;;;8.80;55.70;;;;;;4935446;28;20228;-82
2024/01/24 01:28:31;;;;;;;18.87;6.60;;;8.80;55.70;;;;;;4949615;28;20193;-83
2024/01/24 01:30:56;;;;;;;25.10;6.90;;;8.80;55.60;;;;;;4933053;29;20187;-82
2024/01/24 01:33:22;;;;;;;24.17;8.13;;;8.80;55.60;;;;;;4935709;29;20206;-82
2024/01/24 01:35:47;;;;;;;18.23;7.33;;;8.90;55.70;;;;;;4934096;29;20274;-82
2024/01/24 01:38:14;;;;;;;14.80;6.87;;;8.80;55.50;;;;;;4934517;29;20660;-83
2024/01/24 01:40:40;;;;;;;16.20;6.47;;;8.90;55.60;;;;;;4933786;29;20200;-84
2024/01/24 01:43:13;;;;;;;19.57;7.20;;;8.80;55.40;;;;;;4950145;29;20186;-83
2024/01/24 01:45:40;;;;;;;19.73;7.27;;;8.80;55.40;;;;;;4930915;29;20181;-83
2024/01/24 01:48:07;;;;;;;22.73;7.03;;;8.80;55.40;;;;;;4932625;28;20247;-82
2024/01/24 01:50:33;;;;;;;16.67;7.20;;;8.80;55.40;;;;;;4948859;29;20189;-82
2024/01/24 01:52:59;;;;;;;18.43;6.83;;;8.80;55.40;;;;;;4933803;29;20428;-82
2024/01/24 01:55:24;;;;;;;17.20;7.70;;;8.70;55.20;;;;;;4933195;29;20242;-82
2024/01/24 01:57:50;;;;;;;26.33;8.07;;;8.70;55.30;;;;;;4933576;29;20678;-83
2024/01/24 02:00:20;;;;;;;24.80;7.63;;;8.80;55.40;;;;;;4935001;28;20272;-82
2024/01/24 02:02:49;;;;;;;19.43;7.30;;;8.70;55.30;;;;;;4933736;29;20193;-83
2024/01/24 02:05:15;;;;;;;20.17;7.10;;;8.70;55.20;;;;;;4934464;29;20264;-83
2024/01/24 02:07:45;;;;;;;16.13;6.40;;;8.70;55.30;;;;;;4934013;28;20587;-82
2024/01/24 02:10:14;;;;;;;14.77;6.43;;;8.70;55.30;;;;;;4922073;28;20185;-82
2024/01/24 02:12:40;;;;;;;19.70;6.73;;;8.70;55.20;;;;;;4931786;29;20260;-82
2024/01/24 02:15:08;;;;;;;15.83;6.30;;;8.80;55.30;;;;;;4922777;29;20549;-82
2024/01/24 02:17:34;;;;;;;15.83;6.50;;;8.70;55.10;;;;;;4923542;29;20263;-83
2024/01/24 02:20:00;;;;;;;18.33;6.27;;;8.90;55.30;;;;;;4922636;29;20488;-81
2024/01/24 02:22:26;;;;;;;15.63;6.33;;;8.70;55.10;;;;;;4921244;29;20645;-82
2024/01/24 02:24:52;;;;;;;21.63;7.00;;;8.70;55.10;;;;;;4920435;29;20181;-80
2024/01/24 02:27:17;;;;;;;17.27;6.20;;;8.90;55.20;;;;;;4924000;29;20177;-83
2024/01/24 02:29:43;;;;;;;21.50;6.77;;;8.70;55.00;;;;;;4922602;29;20186;-83
2024/01/24 02:32:09;;;;;;;16.17;6.03;;;8.80;55.10;;;;;;4922833;29;20185;-83
2024/01/24 02:34:34;;;;;;;15.67;6.20;;;8.80;55.10;;;;;;4922077;29;20239;-81
2024/01/24 02:37:00;;;;;;;16.87;6.70;;;8.80;55.10;;;;;;4918650;29;20655;-82
2024/01/24 02:39:26;;;;;;;20.63;6.73;;;8.90;54.90;;;;;;4939244;29;20174;-83
2024/01/24 02:41:51;;;;;;;15.10;6.33;;;8.70;54.80;;;;;;4937927;28;20232;-83
2024/01/24 02:44:17;;;;;;;12.90;6.03;;;8.70;54.80;;;;;;4936284;29;20590;-82
2024/01/24 02:46:42;;;;;;;17.40;6.43;;;8.70;54.80;;;;;;4921875;28;20640;-82
2024/01/24 02:49:08;;;;;;;17.97;6.13;;;8.70;54.80;;;;;;4917435;29;20296;-83
2024/01/24 02:51:33;;;;;;;18.67;6.83;;;8.80;54.80;;;;;;4923607;29;20260;-81
2024/01/24 02:53:59;;;;;;;22.10;6.87;;;8.70;54.60;;;;;;4922176;29;20197;-82
2024/01/24 02:56:25;;;;;;;15.20;6.70;;;8.70;54.60;;;;;;4936661;28;20300;-82
2024/01/24 03:02:12;;;;;;;16.60;6.73;;;8.70;54.50;;;;;;4929473;28;20239;-82
2024/01/24 03:04:38;;;;;;;16.33;6.00;;;8.60;54.20;;;;;;4932849;29;20628;-81
2024/01/24 03:07:03;;;;;;;17.63;6.87;;;8.60;54.20;;;;;;4919225;29;20525;-82
2024/01/24 03:09:29;;;;;;;13.83;5.90;;;8.60;54.30;;;;;;4922346;29;20193;-82
2024/01/24 03:11:55;;;;;;;15.40;6.70;;;8.60;54.40;;;;;;4921474;29;20747;-83
2024/01/24 03:14:21;;;;;;;20.23;7.03;;;8.60;54.30;;;;;;4920471;29;20659;-81
2024/01/24 03:16:47;;;;;;;20.67;6.77;;;8.60;54.20;;;;;;4917608;29;20210;-81
2024/01/24 03:19:13;;;;;;;14.93;6.43;;;8.60;54.20;;;;;;4922981;29;20240;-81
2024/01/24 03:21:40;;;;;;;20.20;6.40;;;8.50;54.00;;;;;;4922129;29;20197;-83
2024/01/24 03:24:06;;;;;;;18.40;6.60;;;8.50;54.10;;;;;;4934221;28;20197;-83
2024/01/24 03:26:31;;;;;;;17.13;7.43;;;8.50;53.90;;;;;;4936876;28;20196;-82
2024/01/24 03:28:57;;;;;;;19.30;6.87;;;8.60;54.10;;;;;;4915188;29;20194;-81
2024/01/24 03:31:23;;;;;;;18.90;6.73;;;8.50;53.90;;;;;;4922718;29;20186;-82
2024/01/24 03:33:48;;;;;;;17.23;6.60;;;8.60;54.00;;;;;;4921051;29;20716;-82
2024/01/24 03:36:14;;;;;;;18.47;6.63;;;8.50;53.90;;;;;;4935750;29;20349;-81
2024/01/24 03:38:40;;;;;;;17.33;6.43;;;8.50;53.80;;;;;;4921350;29;20189;-82
2024/01/24 03:41:05;;;;;;;17.70;7.17;;;8.40;53.60;;;;;;4932397;29;20262;-81
2024/01/24 03:43:31;;;;;;;13.23;6.10;;;8.50;53.70;;;;;;4922515;29;20257;-83
2024/01/24 03:45:57;;;;;;;16.93;6.13;;;8.40;53.60;;;;;;4920272;29;20193;-83
2024/01/24 03:48:23;;;;;;;15.00;5.83;;;8.50;53.80;;;;;;4936935;28;20699;-83
2024/01/24 03:50:48;;;;;;;15.47;6.73;;;8.40;53.70;;;;;;4920697;28;20195;-83
2024/01/24 03:53:14;;;;;;;15.60;6.17;;;8.40;53.70;;;;;;4932520;29;20269;-83
2024/01/24 03:55:40;;;;;;;13.57;5.50;;;8.60;53.60;;;;;;4919782;29;20672;-82
2024/01/24 03:58:06;;;;;;;13.70;6.13;;;8.50;53.50;;;;;;4939489;29;20641;-81
2024/01/24 04:00:32;;;;;;;11.00;5.27;;;8.50;53.60;;;;;;4938715;29;20186;-83
2024/01/24 04:02:58;;;;;;;16.03;5.73;;;8.50;53.60;;;;;;4934742;29;20564;-83
2024/01/24 04:05:23;;;;;;;15.90;6.57;;;8.60;53.70;;;;;;4919441;28;20198;-82
2024/01/24 04:07:49;;;;;;;15.40;5.70;;;8.50;53.50;;;;;;4916679;29;20331;-83
2024/01/24 04:10:16;;;;;;;14.97;6.20;;;8.40;53.30;;;;;;4931706;29;20217;-81
2024/01/24 04:12:41;;;;;;;18.50;5.97;;;8.40;53.20;;;;;;4920789;29;20695;-82
2024/01/24 04:15:07;;;;;;;14.10;6.10;;;8.40;53.20;;;;;;4919655;29;20221;-82
2024/01/24 04:17:33;;;;;;;14.47;5.73;;;8.40;53.40;;;;;;4920321;29;20549;-82
2024/01/24 04:19:59;;;;;;;16.13;6.17;;;8.50;53.50;;;;;;4914749;29;20191;-82
2024/01/24 04:22:25;;;;;;;17.03;6.43;;;8.40;53.20;;;;;;4921787;29;20264;-82
2024/01/24 04:24:50;;;;;;;13.57;6.00;;;8.50;53.30;;;;;;4919933;29;20241;-83
2024/01/24 04:27:16;;;;;;;16.03;5.70;;;8.40;53.20;;;;;;4920791;29;20284;-82
2024/01/24 04:29:42;;;;;;;14.83;5.50;;;8.40;53.10;;;;;;4935143;28;20524;-83
2024/01/24 04:32:09;;;;;;;15.47;6.23;;;8.40;53.00;;;;;;4913612;29;20641;-81
2024/01/24 04:34:35;;;;;;;11.13;5.83;;;8.40;52.90;;;;;;4938392;29;20169;-82
2024/01/24 04:37:01;;;;;;;17.77;6.07;;;8.50;52.80;;;;;;4919778;29;20213;-82
2024/01/24 04:39:26;;;;;;;20.20;7.00;;;8.40;52.80;;;;;;4935277;28;20594;-82
2024/01/24 04:41:53;;;;;;;17.50;6.47;;;8.30;52.70;;;;;;4919690;29;20193;-81
2024/01/24 04:44:19;;;;;;;16.77;7.00;;;8.30;52.90;;;;;;4916013;29;20246;-81
2024/01/24 04:46:44;;;;;;;11.40;6.10;;;8.30;52.90;;;;;;4935456;29;20186;-82
2024/01/24 04:49:11;;;;;;;16.93;6.47;;;8.40;52.90;;;;;;4920462;29;20184;-81
2024/01/24 04:51:37;;;;;;;14.63;6.50;;;8.40;52.90;;;;;;4934840;29;20191;-82
2024/01/24 04:54:03;;;;;;;12.97;6.50;;;8.40;52.80;;;;;;4933525;28;20184;-83
2024/01/24 04:56:29;;;;;;;17.03;6.83;;;8.40;52.50;;;;;;4918789;29;20217;-82
2024/01/24 04:58:55;;;;;;;13.53;5.93;;;8.30;52.40;;;;;;4914904;29;20182;-83
2024/01/24 05:01:20;;;;;;;16.83;5.97;;;8.30;52.60;;;;;;4921552;29;20281;-83
2024/01/24 05:03:46;;;;;;;14.57;5.70;;;8.30;52.50;;;;;;4920371;29;20210;-82
2024/01/24 05:06:12;;;;;;;12.23;5.77;;;8.20;52.30;;;;;;4920335;29;20198;-83
2024/01/24 05:08:39;;;;;;;12.40;6.03;;;8.40;52.60;;;;;;4934125;29;20240;-83
2024/01/24 05:11:05;;;;;;;15.43;6.37;;;8.20;52.40;;;;;;4913052;29;20192;-81
2024/01/24 05:13:31;;;;;;;13.37;5.90;;;8.20;52.60;;;;;;4920815;29;20233;-82
2024/01/24 05:15:58;;;;;;;14.97;6.73;;;8.20;52.60;;;;;;4919208;29;20222;-82
2024/01/24 05:18:23;;;;;;;15.37;6.60;;;8.20;52.60;;;;;;4933812;29;20260;-82
2024/01/24 05:20:49;;;;;;;15.17;6.77;;;8.20;52.70;;;;;;4919428;29;20577;-82
2024/01/24 05:23:15;;;;;;;15.80;7.37;;;8.30;52.80;;;;;;4914597;29;20637;-82
2024/01/24 05:25:42;;;;;;;15.50;6.93;;;8.20;52.60;;;;;;4936802;29;20269;-82
2024/01/24 05:28:09;;;;;;;14.90;7.00;;;8.20;52.70;;;;;;4935323;29;20202;-83
2024/01/24 05:30:34;;;;;;;16.50;6.20;;;8.30;52.70;;;;;;4919877;29;20185;-82
2024/01/24 05:33:00;;;;;;;13.70;6.67;;;8.40;52.70;;;;;;4919353;29;20195;-82
2024/01/24 05:35:26;;;;;;;15.23;6.53;;;8.30;52.50;;;;;;4916656;29;20585;-81
2024/01/24 05:37:52;;;;;;;20.40;7.80;;;8.40;52.70;;;;;;4916237;29;20269;-82
2024/01/24 05:40:17;;;;;;;20.40;7.37;;;8.30;52.60;;;;;;4935691;29;20260;-82
2024/01/24 05:42:44;;;;;;;14.67;6.73;;;8.20;52.30;;;;;;4934381;29;20196;-83
2024/01/24 05:45:11;;;;;;;17.63;7.37;;;8.20;52.50;;;;;;4927821;29;20723;-83
2024/01/24 05:47:37;;;;;;;17.00;7.07;;;8.30;52.70;;;;;;4923208;29;20196;-80
2024/01/24 05:50:03;;;;;;;18.23;7.53;;;8.30;52.50;;;;;;4917461;29;20645;-81
2024/01/24 05:52:29;;;;;;;16.47;6.60;;;8.30;52.70;;;;;;4940775;29;20261;-83
2024/01/24 05:54:54;;;;;;;14.80;7.17;;;8.20;52.50;;;;;;4936832;28;20269;-81
2024/01/24 05:57:21;;;;;;;19.70;7.17;;;8.30;52.60;;;;;;4937240;29;20304;-82
2024/01/24 05:59:47;;;;;;;18.93;7.87;;;8.40;52.60;;;;;;4938947;29;20177;-82
2024/01/24 06:02:13;;;;;;;16.13;7.10;;;8.30;52.70;;;;;;4916914;29;20193;-81
2024/01/24 06:04:39;;;;;;;16.50;7.27;;;8.30;52.80;;;;;;4941143;29;20525;-82
2024/01/24 06:07:06;;;;;;;18.30;7.30;;;8.30;52.70;;;;;;4922659;29;20186;-83
2024/01/24 06:09:31;;;;;;;18.53;7.33;;;8.30;52.70;;;;;;4923304;29;20204;-82
2024/01/24 06:11:58;;;;;;;19.27;8.30;;;8.30;52.80;;;;;;4922152;29;20687;-82
2024/01/24 06:14:24;;;;;;;16.87;7.53;;;8.30;52.90;;;;;;4934612;29;20190;-82
2024/01/24 06:16:49;;;;;;;20.37;8.07;;;8.40;53.20;;;;;;4938278;29;20210;-82
2024/01/24 06:19:15;;;;;;;20.17;7.17;;;8.30;53.40;;;;;;4924226;29;20177;-82
2024/01/24 06:21:41;;;;;;;17.10;7.27;;;8.30;53.60;;;;;;4923460;29;20190;-82
2024/01/24 06:24:07;;;;;;;16.10;7.40;;;8.30;53.80;;;;;;4922017;29;20556;-82
2024/01/24 06:26:32;;;;;;;18.33;8.33;;;8.30;54.00;;;;;;4920511;29;20198;-82
2024/01/24 06:28:58;;;;;;;16.97;7.27;;;8.30;54.40;;;;;;4918833;29;20235;-83
2024/01/24 06:31:24;;;;;;;18.67;8.23;;;8.20;54.40;;;;;;4939071;29;20185;-82
2024/01/24 06:33:49;;;;;;;17.13;8.10;;;8.20;54.60;;;;;;4931549;29;20192;-81
2024/01/24 06:36:15;;;;;;;18.67;7.80;;;8.20;54.80;;;;;;4926128;29;20213;-83
2024/01/24 06:38:40;;;;;;;20.87;8.23;;;8.10;54.80;;;;;;4922206;29;20188;-82
2024/01/24 06:41:06;;;;;;;20.07;8.73;;;8.10;55.00;;;;;;4916747;29;20337;-81
2024/01/24 06:43:32;;;;;;;17.30;8.10;;;8.20;55.30;;;;;;4923537;29;20277;-82
2024/01/24 06:45:57;;;;;;;17.07;7.97;;;8.00;55.30;;;;;;4921929;29;20285;-82
2024/01/24 06:48:23;;;;;;;19.27;8.47;;;8.00;55.40;;;;;;4923019;29;20273;-83
2024/01/24 06:50:48;;;;;;;16.60;8.47;;;8.00;55.60;;;;;;4922709;28;20201;-82
2024/01/24 06:53:14;;;;;;;18.70;7.80;;;7.90;55.70;;;;;;4916585;29;20197;-83
2024/01/24 06:55:41;;;;;;;17.67;8.07;;;8.00;56.00;;;;;;4922945;29;20213;-82
2024/01/24 06:58:07;;;;;;;16.77;7.20;;;7.90;55.90;;;;;;4921725;29;20288;-82
2024/01/24 07:00:33;;;;;;;20.40;8.37;;;7.80;56.10;;;;;;4938587;28;20186;-83
2024/01/24 07:03:00;;;;;;;19.57;8.30;;;7.80;56.20;;;;;;4922230;29;20192;-82
2024/01/24 07:05:25;;;;;;;22.33;8.70;;;7.70;56.30;;;;;;4918011;29;20269;-82
2024/01/24 07:07:51;;;;;;;16.10;8.30;;;7.60;56.60;;;;;;4920600;29;20212;-83
2024/01/24 07:10:17;;;;;;;23.63;8.53;;;7.60;56.80;;;;;;4921850;29;20186;-81
2024/01/24 07:12:45;;;;;;;18.40;7.30;;;7.50;56.90;;;;;;4921902;29;20228;-83
2024/01/24 07:15:12;;;;;;;18.23;7.00;;;7.60;57.30;;;;;;4921325;29;20186;-82
2024/01/24 07:17:38;;;;;;;20.90;7.53;;;7.50;57.20;;;;;;4920905;29;20235;-81
2024/01/24 07:20:04;;;;;;;19.30;7.70;;;7.40;58.00;;;;;;4949681;28;20647;-83
2024/01/24 07:22:30;;;;;;;16.23;6.97;;;7.40;57.70;;;;;;4953101;29;20225;-81
2024/01/24 07:24:55;;;;;;;16.43;7.27;;;7.30;58.00;;;;;;4922066;29;20645;-83
2024/01/24 07:27:21;;;;;;;15.53;8.10;;;7.30;58.10;;;;;;4921964;29;20192;-83
2024/01/24 07:29:46;;;;;;;20.53;7.60;;;7.30;58.40;;;;;;4921868;29;20246;-83
2024/01/24 07:32:12;;;;;;;16.27;7.50;;;7.30;58.40;;;;;;4916012;29;20814;-82
2024/01/24 07:34:38;;;;;;;14.97;7.40;;;7.30;58.50;;;;;;4937074;29;20212;-81
2024/01/24 07:37:05;;;;;;;15.13;7.03;;;7.30;58.60;;;;;;4920146;29;20580;-82
2024/01/24 07:39:31;;;;;;;13.83;7.07;;;7.30;58.70;;;;;;4921903;29;20280;-81
2024/01/24 07:41:57;;;;;;;13.73;6.80;;;7.40;58.70;;;;;;4935010;29;20714;-82
2024/01/24 07:44:23;;;;;;;13.43;6.60;;;7.40;58.70;;;;;;4916012;29;20555;-81
2024/01/24 07:46:49;;;;;;;14.47;6.87;;;7.50;58.80;;;;;;4921290;29;20638;-82
2024/01/24 07:49:14;;;;;;;12.57;5.80;;;7.50;58.80;;;;;;4935556;29;20177;-81
2024/01/24 07:51:46;;;;;;;13.33;5.60;;;7.50;59.00;;;;;;4921533;29;20217;-83
2024/01/24 07:54:12;;;;;;;9.60;5.13;;;7.50;59.00;;;;;;4920653;29;20205;-82
2024/01/24 07:56:38;;;;;;;10.37;5.80;;;7.50;59.20;;;;;;4919839;28;20717;-82
2024/01/24 07:59:05;;;;;;;12.30;5.83;;;7.40;59.30;;;;;;4917589;29;20181;-81
2024/01/24 08:01:31;;;;;;;11.57;5.40;;;7.50;59.60;;;;;;4922610;29;20252;-82
2024/01/24 08:03:56;;;;;;;12.57;5.50;;;7.50;59.60;;;;;;4929015;28;20213;-83
2024/01/24 08:06:22;;;;;;;8.47;5.27;;;7.50;59.60;;;;;;4924211;29;20248;-82
2024/01/24 08:08:49;;;;;;;12.00;5.93;;;7.50;59.80;;;;;;4934728;29;20185;-83
2024/01/24 08:11:15;;;;;;;14.10;6.07;;;7.50;59.80;;;;;;4915341;29;20185;-82
2024/01/24 08:13:41;;;;;;;12.87;5.43;;;7.50;60.00;;;;;;4936275;29;20229;-83
2024/01/24 08:16:07;;;;;;;15.70;6.27;;;7.50;60.00;;;;;;4937017;28;20650;-81
2024/01/24 08:18:33;;;;;;;13.97;5.17;;;7.50;60.10;;;;;;4921081;29;20185;-82
2024/01/24 08:20:59;;;;;;;10.57;5.17;;;7.60;60.30;;;;;;4933886;28;20651;-82
2024/01/24 08:23:25;;;;;;;10.23;5.13;;;7.70;60.40;;;;;;4915244;29;20562;-82
2024/01/24 08:25:50;;;;;;;9.53;5.50;;;7.70;60.40;;;;;;4921347;29;20719;-83
2024/01/24 08:28:16;;;;;;;12.20;5.63;;;7.60;60.30;;;;;;4917806;29;20268;-83
2024/01/24 08:30:42;;;;;;;11.03;5.43;;;7.70;60.40;;;;;;4920731;29;20269;-81
2024/01/24 08:33:08;;;;;;;12.43;4.90;;;7.70;60.50;;;;;;4920350;29;20596;-82
2024/01/24 08:35:36;;;;;;;9.20;5.07;;;7.70;60.50;;;;;;4932034;29;20212;-81
2024/01/24 08:38:02;;;;;;;9.40;5.23;;;7.80;60.80;;;;;;4917094;29;20178;-83
2024/01/24 08:40:28;;;;;;;5.90;4.40;;;7.70;61.00;;;;;;4938277;28;20265;-83
2024/01/24 08:42:54;;;;;;;10.60;4.83;;;7.80;61.10;;;;;;4925331;29;20297;-82
2024/01/24 08:45:20;;;;;;;10.67;5.17;;;7.70;61.30;;;;;;4919768;29;20182;-81
2024/01/24 08:47:46;;;;;;;12.23;5.37;;;7.70;61.30;;;;;;4919507;29;20277;-82
2024/01/24 08:50:11;;;;;;;7.90;4.63;;;7.80;61.60;;;;;;4915240;29;26330;-83
2024/01/24 08:52:38;;;;;;;9.90;5.13;;;7.90;61.50;;;;;;4934974;29;20185;-83
2024/01/24 08:55:06;;;;;;;6.43;4.07;;;7.90;61.60;;;;;;4929657;29;20641;-83
2024/01/24 08:57:32;;;;;;;8.57;4.40;;;8.00;61.60;;;;;;4942810;29;20312;-82
2024/01/24 08:59:57;;;;;;;7.77;4.37;;;8.10;61.70;;;;;;4920008;29;20631;-82
2024/01/24 09:02:23;;;;;;;7.60;4.40;;;8.00;61.60;;;;;;4915647;29;20190;-81
2024/01/24 09:04:51;;;;;;;9.63;4.60;;;8.10;61.80;;;;;;4921304;29;20190;-82
2024/01/24 09:07:19;;;;;;;6.90;4.17;;;8.10;61.70;;;;;;4934395;28;20186;-83
2024/01/24 09:09:50;;;;;;;6.77;4.10;;;8.10;61.90;;;;;;4936168;29;20696;-82
2024/01/24 09:12:16;;;;;;;5.97;3.60;;;8.20;62.00;;;;;;4922001;29;20226;-83
2024/01/24 09:14:42;;;;;;;5.80;3.63;;;8.20;62.20;;;;;;4935013;29;20184;-81
2024/01/24 09:17:07;;;;;;;6.47;3.77;;;8.20;62.20;;;;;;4932727;29;20256;-82
2024/01/24 09:19:34;;;;;;;5.87;3.93;;;8.30;62.50;;;;;;4933465;29;20576;-83
2024/01/24 09:22:01;;;;;;;4.63;2.93;;;8.20;62.50;;;;;;4948072;28;20189;-82
2024/01/24 09:24:26;;;;;;;6.67;3.40;;;8.30;62.70;;;;;;4949759;28;20185;-81
2024/01/24 09:26:52;;;;;;;5.53;3.23;;;8.30;62.70;;;;;;4935249;29;20332;-81
2024/01/24 09:29:18;;;;;;;5.80;3.27;;;8.30;62.80;;;;;;4932189;29;20719;-82
2024/01/24 09:31:45;;;;;;;6.10;3.13;;;8.40;63.00;;;;;;4936107;29;20192;-82
2024/01/24 09:34:14;;;;;;;4.10;3.10;;;8.40;63.10;;;;;;4949848;28;20286;-82
2024/01/24 09:36:40;;;;;;;5.80;3.47;;;8.40;63.30;;;;;;4934608;29;20236;-83
2024/01/24 09:39:07;;;;;;;4.27;3.30;;;8.50;63.40;;;;;;4933998;29;20220;-81
2024/01/24 09:41:40;;;;;;;4.43;3.10;;;8.50;63.50;;;;;;4934407;29;20699;-83
2024/01/24 09:44:09;;;;;;;4.43;2.70;;;8.50;63.60;;;;;;4933295;29;20181;-82
2024/01/24 09:46:40;;;;;;;6.03;3.10;;;8.60;63.90;;;;;;4935424;29;20185;-82
2024/01/24 09:49:06;;;;;;;6.23;3.10;;;8.50;63.80;;;;;;4948190;28;20195;-82
2024/01/24 09:51:33;;;;;;;4.07;3.20;;;8.60;64.20;;;;;;4933804;28;20323;-82
2024/01/24 09:54:05;;;;;;;4.97;3.33;;;8.60;64.10;;;;;;4933827;28;20200;-83
2024/01/24 09:56:34;;;;;;;5.43;3.10;;;8.60;64.10;;;;;;4934429;29;20268;-83
2024/01/24 09:59:01;;;;;;;4.00;3.10;;;8.60;64.30;;;;;;4934211;29;20181;-81
2024/01/24 10:01:31;;;;;;;4.23;3.00;;;8.60;64.50;;;;;;4935320;29;20583;-82
2024/01/24 10:03:59;;;;;;;3.43;2.73;;;8.70;64.80;;;;;;4928266;29;20609;-82
2024/01/24 10:06:26;;;;;;;3.00;2.70;;;8.60;64.80;;;;;;4934741;29;20189;-82
2024/01/24 10:08:51;;;;;;;2.90;2.07;;;8.60;65.40;;;;;;4934524;29;20640;-81
2024/01/24 10:11:17;;;;;;;3.00;2.70;;;8.70;65.50;;;;;;4949854;29;20251;-81
2024/01/24 10:13:43;;;;;;;3.77;3.00;;;8.80;66.50;;;;;;4935049;29;20228;-82
2024/01/24 10:16:09;;;;;;;5.33;3.60;;;8.70;65.70;;;;;;4948891;28;20225;-83
2024/01/24 10:18:35;;;;;;;3.57;2.53;;;8.70;65.90;;;;;;4933979;28;20195;-83
2024/01/24 10:21:04;;;;;;;4.00;2.70;;;8.80;66.10;;;;;;4933708;29;20189;-82
2024/01/24 10:23:30;;;;;;;3.83;2.60;;;8.80;66.10;;;;;;4932380;29;20618;-83
2024/01/24 10:25:57;;;;;;;4.27;2.90;;;8.90;66.20;;;;;;4935266;28;20177;-83
2024/01/24 10:28:23;;;;;;;3.10;2.73;;;8.90;66.20;;;;;;4933435;29;20185;-81
2024/01/24 10:30:51;;;;;;;3.40;3.00;;;8.90;66.30;;;;;;4938036;29;20185;-83
2024/01/24 10:33:17;;;;;;;4.20;3.03;;;9.00;66.80;;;;;;4936644;28;20243;-83
2024/01/24 10:35:43;;;;;;;3.37;2.77;;;9.00;66.80;;;;;;4937784;29;20674;-81
2024/01/24 10:38:12;;;;;;;3.80;3.23;;;9.10;67.20;;;;;;4935717;29;20189;-83
2024/01/24 10:40:41;;;;;;;3.77;3.10;;;9.00;67.10;;;;;;4936414;28;20181;-81
2024/01/24 10:43:12;;;;;;;7.23;3.43;;;9.00;67.30;;;;;;4936646;29;20193;-82
2024/01/24 10:45:44;;;;;;;3.23;2.57;;;9.10;67.50;;;;;;4937214;29;20197;-82
2024/01/24 10:48:11;;;;;;;3.60;2.73;;;9.00;67.80;;;;;;4952914;28;20217;-83
2024/01/24 10:50:39;;;;;;;4.93;3.50;;;9.00;68.30;;;;;;4935585;28;20396;-82
2024/01/24 10:53:05;;;;;;;3.30;3.00;;;9.10;68.40;;;;;;4936495;29;20184;-83
2024/01/24 10:55:33;;;;;;;5.83;3.07;;;9.10;68.30;;;;;;4936747;29;20185;-82
2024/01/24 10:57:59;;;;;;;3.37;2.90;;;9.20;68.40;;;;;;4937154;29;20193;-82
2024/01/24 11:00:25;;;;;;;4.70;3.00;;;9.20;68.20;;;;;;4936387;29;20193;-82
2024/01/24 11:02:52;;;;;;;5.23;3.63;;;9.30;68.10;;;;;;4936839;28;20197;-83
2024/01/24 11:05:43;;;;;;;4.17;3.30;;;9.40;68.20;;;;;;4935703;29;20226;-82
2024/01/24 11:08:25;;;;;;;3.97;3.40;;;9.40;68.00;;;;;;4933073;29;20264;-82
2024/01/24 11:10:54;;;;;;;5.87;3.80;;;9.40;68.10;;;;;;4923274;29;20277;-84
2024/01/24 11:13:20;;;;;;;4.30;3.63;;;9.50;68.20;;;;;;4930097;29;20237;-81
2024/01/24 11:15:47;;;;;;;4.20;3.33;;;9.50;68.30;;;;;;4932168;29;20225;-82
2024/01/24 11:18:28;;;;;;;5.70;3.60;;;9.50;68.30;;;;;;4933652;28;20284;-83
2024/01/24 11:20:59;;;;;;;4.53;3.80;;;9.60;68.60;;;;;;4935945;29;20181;-81
2024/01/24 11:23:57;;;;;;;5.73;3.67;;;9.60;68.40;;;;;;4952208;28;20280;-83
2024/01/24 11:26:22;;;;;;;5.30;3.87;;;9.60;68.70;;;;;;4911455;29;20787;-83
2024/01/24 11:28:48;;;;;;;5.63;4.17;;;9.60;68.80;;;;;;4900181;29;20191;-83
2024/01/24 11:31:14;;;;;;;7.47;4.43;;;9.60;68.90;;;;;;4906768;29;20195;-82
2024/01/24 11:34:06;;;;;;;5.27;4.67;;;9.70;69.20;;;;;;4893299;29;20684;-83
2024/01/24 11:36:31;;;;;;;4.40;4.00;;;9.60;69.50;;;;;;4891545;29;20274;-82
2024/01/24 11:38:57;;;;;;;6.40;4.87;;;9.60;69.50;;;;;;4894573;29;20587;-82
2024/01/24 11:41:26;;;;;;;7.63;4.90;;;9.70;69.70;;;;;;4896436;29;20187;-82
2024/01/24 11:43:52;;;;;;;6.27;4.53;;;9.70;69.80;;;;;;4897563;29;20186;-81
2024/01/24 11:46:22;;;;;;;6.67;4.57;;;9.70;69.90;;;;;;4890185;29;20226;-81
2024/01/24 11:48:48;;;;;;;5.63;4.63;;;9.80;70.10;;;;;;4897574;29;20206;-83
2024/01/24 11:51:15;;;;;;;5.30;4.73;;;9.80;70.10;;;;;;4908528;29;20195;-83
2024/01/24 11:53:42;;;;;;;7.53;5.33;;;9.80;70.60;;;;;;4881102;29;20302;-83
2024/01/24 11:56:14;;;;;;;5.93;4.97;;;9.80;70.70;;;;;;4894077;29;20223;-83
2024/01/24 11:58:40;;;;;;;8.23;5.47;;;9.90;70.70;;;;;;4894427;29;20183;-82
2024/01/24 12:01:13;;;;;;;6.97;5.50;;;10.00;69.50;;;;;;4893185;29;20260;-83
2024/01/24 12:03:48;;;;;;;6.73;4.80;;;10.00;69.70;;;;;;4936234;29;20244;-82
2024/01/24 12:06:14;;;;;;;6.37;5.23;;;10.00;69.80;;;;;;4949375;28;20193;-82
2024/01/24 12:08:39;;;;;;;8.30;5.60;;;10.00;69.80;;;;;;4934315;29;20319;-82
2024/01/24 12:11:11;;;;;;;7.10;4.90;;;10.10;70.20;;;;;;4935647;29;20702;-83
2024/01/24 12:13:37;;;;;;;7.70;4.90;;;10.20;70.60;;;;;;4936230;29;20249;-82
2024/01/24 12:16:03;;;;;;;6.10;5.10;;;10.30;70.60;;;;;;4935802;29;20224;-83
2024/01/24 12:18:28;;;;;;;7.53;4.00;;;10.40;70.80;;;;;;4935239;29;20547;-82
2024/01/24 12:20:55;;;;;;;6.47;4.13;;;10.40;70.70;;;;;;4952032;28;20196;-83
2024/01/24 12:23:21;;;;;;;8.23;4.47;;;10.40;70.80;;;;;;4933880;29;20188;-83
2024/01/24 12:25:47;;;;;;;7.80;4.27;;;10.50;71.10;;;;;;4936658;29;20182;-83
2024/01/24 12:28:13;;;;;;;5.00;3.73;;;10.40;71.20;;;;;;4934214;28;20236;-82
2024/01/24 12:30:46;;;;;;;5.80;3.80;;;10.50;71.40;;;;;;4950104;28;20193;-82
2024/01/24 12:33:14;;;;;;;6.97;4.30;;;10.60;71.10;;;;;;4934659;29;20181;-83
2024/01/24 12:35:45;;;;;;;5.77;4.10;;;10.60;71.60;;;;;;4935109;29;20218;-83
2024/01/24 12:38:11;;;;;;;7.00;3.90;;;10.70;71.10;;;;;;4934527;29;20177;-82
2024/01/24 12:40:37;;;;;;;7.63;4.60;;;10.70;71.20;;;;;;4934031;29;20184;-82
2024/01/24 12:43:03;;;;;;;9.63;3.97;;;10.80;71.30;;;;;;4950441;29;20248;-83
2024/01/24 12:45:28;;;;;;;4.57;3.50;;;10.70;71.30;;;;;;4934383;29;20177;-82
2024/01/24 12:47:54;;;;;;;6.83;4.10;;;10.70;71.60;;;;;;4935880;29;20239;-83
2024/01/24 12:50:21;;;;;;;5.27;3.60;;;10.70;72.30;;;;;;4934100;29;20268;-82